createdAt,value
2023-08-13T00:01:01.201Z,19.7
2023-08-13T00:02:01.196Z,19.9
2023-08-13T00:04:01.208Z,19.7
2023-08-13T00:07:01.089Z,19.8
2023-08-13T00:08:01.128Z,19.9
2023-08-13T00:09:01.323Z,19.7
2023-08-13T00:12:01.122Z,19.9
2023-08-13T00:13:01.123Z,20
2023-08-13T00:16:01.104Z,19.8
2023-08-13T00:18:01.109Z,19.8
2023-08-13T00:20:01.131Z,19.7
2023-08-13T00:23:01.049Z,19.8
2023-08-13T00:24:01.122Z,19.7
2023-08-13T00:26:01.259Z,19.8
2023-08-13T00:28:01.256Z,19.7
2023-08-13T00:30:01.159Z,19.8
2023-08-13T00:32:01.053Z,19.9
2023-08-13T00:33:01.101Z,19.8
2023-08-13T00:36:01.127Z,19.5
2023-08-13T00:39:00.982Z,20
2023-08-13T00:40:01.080Z,19.9
2023-08-13T00:42:01.160Z,19.8
2023-08-13T00:44:01.024Z,19.9
2023-08-13T00:47:01.013Z,20
2023-08-13T00:48:01.273Z,19.7
2023-08-13T00:50:01.132Z,19.9
2023-08-13T00:52:01.111Z,20
2023-08-13T00:57:00.979Z,19.8
2023-08-13T00:58:01.067Z,19.9
2023-08-13T01:00:01.143Z,19.8
2023-08-13T01:02:00.970Z,19.8
2023-08-13T01:03:01.192Z,19.9
2023-08-13T01:04:01.162Z,20
2023-08-13T01:06:01.058Z,20
2023-08-13T01:10:01.023Z,19.8
2023-08-13T01:14:00.995Z,19.7
2023-08-13T01:15:01.080Z,19.9
2023-08-13T01:16:01.060Z,19.7
2023-08-13T01:18:01.032Z,19.9
2023-08-13T01:21:01.118Z,20
2023-08-13T01:23:01.149Z,20
2023-08-13T01:28:01.066Z,19.9
2023-08-13T01:31:00.964Z,20.1
2023-08-13T01:32:01.008Z,19.9
2023-08-13T01:34:01.024Z,19.9
2023-08-13T01:35:00.985Z,20
2023-08-13T01:36:01.149Z,20.1
2023-08-13T01:39:01.042Z,20
2023-08-13T01:41:01.182Z,20
2023-08-13T01:43:01.066Z,19.8
2023-08-13T01:45:01.134Z,20.1
2023-08-13T01:50:01.206Z,19.7
2023-08-13T01:51:01.138Z,19.9
2023-08-13T01:53:00.984Z,20
2023-08-13T01:55:01.060Z,19.9
2023-08-13T01:57:01.016Z,19.8
2023-08-13T01:59:01.046Z,19.6
2023-08-13T02:01:01.000Z,20
2023-08-13T02:02:01.040Z,19.9
2023-08-13T02:03:01.086Z,19.7
2023-08-13T02:05:00.994Z,20.1
2023-08-13T02:07:01.024Z,19.8
2023-08-13T02:08:01.051Z,20
2023-08-13T02:11:01.022Z,19.7
2023-08-13T02:12:01.087Z,19.8
2023-08-13T02:14:01.021Z,20
2023-08-13T02:15:01.217Z,19.8
2023-08-13T02:17:01.083Z,19.9
2023-08-13T02:19:01.059Z,19.8
2023-08-13T02:21:01.041Z,19.9
2023-08-13T02:23:00.998Z,19.8
2023-08-13T02:24:01.062Z,19.7
2023-08-13T02:26:01.100Z,20
2023-08-13T02:28:01.043Z,19.8
2023-08-13T02:29:01.085Z,19.9
2023-08-13T02:31:01.194Z,19.8
2023-08-13T02:32:01.094Z,19.7
2023-08-13T02:34:01.045Z,19.8
2023-08-13T02:38:01.019Z,19.7
2023-08-13T02:40:01.032Z,19.6
2023-08-13T02:41:01.081Z,19.8
2023-08-13T02:43:01.004Z,19.6
2023-08-13T02:44:01.051Z,19.7
2023-08-13T02:47:00.961Z,19.8
2023-08-13T02:49:01.035Z,19.7
2023-08-13T02:51:01.123Z,19.6
2023-08-13T02:55:01.109Z,19.7
2023-08-13T02:59:00.982Z,19.6
2023-08-13T03:00:01.204Z,19.8
2023-08-13T03:01:01.016Z,19.5
2023-08-13T03:05:01.007Z,19.6
2023-08-13T03:08:00.989Z,19.7
2023-08-13T03:14:00.981Z,19.6
2023-08-13T03:15:00.984Z,19.8
2023-08-13T03:16:01.041Z,19.7
2023-08-13T03:18:01.013Z,19.5
2023-08-13T03:20:01.024Z,19.7
2023-08-13T03:22:01.165Z,19.5
2023-08-13T03:24:01.037Z,19.6
2023-08-13T03:26:01.057Z,19.6
2023-08-13T03:28:01.020Z,19.4
2023-08-13T03:30:01.186Z,19.5
2023-08-13T03:32:01.016Z,19.4
2023-08-13T03:33:01.071Z,19.6
2023-08-13T03:36:01.094Z,19.6
2023-08-13T03:41:00.991Z,19.4
2023-08-13T03:42:01.048Z,19.5
2023-08-13T03:44:01.038Z,19.5
2023-08-13T03:48:01.068Z,19.4
2023-08-13T03:50:01.067Z,19.6
2023-08-13T03:51:01.109Z,19.4
2023-08-13T03:54:02.040Z,19.5
2023-08-13T03:56:01.002Z,19.4
2023-08-13T03:58:00.969Z,19.6
2023-08-13T04:01:00.990Z,19.4
2023-08-13T04:03:08.767Z,19.5
2023-08-13T04:05:01.127Z,19.6
2023-08-13T04:07:01.022Z,19.3
2023-08-13T04:09:01.057Z,19.4
2023-08-13T04:11:00.940Z,19.4
2023-08-13T04:12:01.047Z,19.6
2023-08-13T04:14:01.075Z,19.5
2023-08-13T04:15:01.348Z,19.6
2023-08-13T04:17:00.988Z,19.5
2023-08-13T04:18:01.048Z,19.4
2023-08-13T04:19:01.069Z,19.5
2023-08-13T04:24:01.114Z,19.6
2023-08-13T04:27:01.122Z,19.5
2023-08-13T04:29:01.021Z,19.5
2023-08-13T04:31:01.094Z,19.6
2023-08-13T04:32:00.999Z,19.5
2023-08-13T04:33:01.055Z,19.6
2023-08-13T04:34:01.047Z,19.7
2023-08-13T04:36:01.073Z,19.6
2023-08-13T04:40:00.973Z,19.5
2023-08-13T04:41:00.978Z,19.8
2023-08-13T04:42:00.979Z,19.7
2023-08-13T04:43:01.015Z,19.8
2023-08-13T04:44:01.000Z,19.9
2023-08-13T04:46:00.978Z,19.8
2023-08-13T04:47:01.105Z,20
2023-08-13T04:49:01.000Z,20.3
2023-08-13T04:50:01.042Z,20.1
2023-08-13T04:51:01.048Z,20.3
2023-08-13T04:53:01.000Z,20.4
2023-08-13T04:54:01.148Z,20.5
2023-08-13T04:57:01.026Z,20.4
2023-08-13T04:59:00.940Z,20.7
2023-08-13T05:00:01.070Z,20.6
2023-08-13T05:01:01.324Z,20.7
2023-08-13T05:04:01.058Z,20.6
2023-08-13T05:05:01.191Z,20.7
2023-08-13T05:07:01.075Z,20.7
2023-08-13T05:08:01.193Z,20.9
2023-08-13T05:10:01.070Z,21.3
2023-08-13T05:11:01.281Z,21.4
2023-08-13T05:13:01.077Z,22.2
2023-08-13T05:15:01.116Z,22.9
2023-08-13T05:17:01.156Z,23
2023-08-13T05:19:01.022Z,23.2
2023-08-13T05:21:01.140Z,23.4
2023-08-13T05:23:01.232Z,23.7
2023-08-13T05:26:01.040Z,23.4
2023-08-13T05:28:01.049Z,23.4
2023-08-13T05:29:01.085Z,23.2
2023-08-13T05:31:01.098Z,22.8
2023-08-13T05:33:01.064Z,22.7
2023-08-13T05:35:01.088Z,22.6
2023-08-13T05:37:01.181Z,22.4
2023-08-13T05:39:01.064Z,22.3
2023-08-13T05:44:01.035Z,22.2
2023-08-13T05:46:01.078Z,22.3
2023-08-13T05:47:01.045Z,22.1
2023-08-13T05:49:01.222Z,22.3
2023-08-13T05:51:01.069Z,22.3
2023-08-13T05:53:01.089Z,22.1
2023-08-13T05:54:01.207Z,22.3
2023-08-13T05:56:01.033Z,22.4
2023-08-13T05:57:01.195Z,22.2
2023-08-13T06:00:01.070Z,22.4
2023-08-13T06:03:01.321Z,22.5
2023-08-13T06:05:01.159Z,22.8
2023-08-13T06:07:01.099Z,22.9
2023-08-13T06:08:01.147Z,23
2023-08-13T06:10:01.082Z,22.9
2023-08-13T06:11:01.105Z,23
2023-08-13T06:12:01.277Z,22.9
2023-08-13T06:14:01.080Z,23
2023-08-13T06:15:01.299Z,23.1
2023-08-13T06:17:12.644Z,22.9
2023-08-13T06:22:01.023Z,23
2023-08-13T06:24:01.048Z,22.8
2023-08-13T06:25:01.177Z,23
2023-08-13T06:28:01.105Z,22.7
2023-08-13T06:33:01.163Z,22.8
2023-08-13T06:34:01.081Z,22.7
2023-08-13T06:37:03.269Z,22.5
2023-08-13T06:38:02.461Z,22.6
2023-08-13T06:40:01.145Z,22.7
2023-08-13T06:42:01.151Z,22.8
2023-08-13T06:43:01.152Z,23
2023-08-13T06:44:01.161Z,23.1
2023-08-13T06:48:01.151Z,23.5
2023-08-13T06:50:01.190Z,23.4
2023-08-13T06:51:01.200Z,23.5
2023-08-13T06:55:01.096Z,23.7
2023-08-13T06:59:02.567Z,23.6
2023-08-13T07:02:01.460Z,23.6
2023-08-13T07:04:01.150Z,23.5
2023-08-13T07:06:01.058Z,23.4
2023-08-13T07:07:01.109Z,23.3
2023-08-13T07:08:01.159Z,23.5
2023-08-13T07:09:01.235Z,23.6
2023-08-13T07:11:01.174Z,23.7
2023-08-13T07:13:01.210Z,23.6
2023-08-13T07:17:01.261Z,23.9
2023-08-13T07:19:01.216Z,24.1
2023-08-13T07:21:01.262Z,24.3
2023-08-13T07:24:01.367Z,24.7
2023-08-13T07:34:01.340Z,24.8
2023-08-13T07:36:01.341Z,25
2023-08-13T07:39:01.375Z,25.2
2023-08-13T07:40:01.442Z,25.3
2023-08-13T07:43:01.114Z,25.4
2023-08-13T07:45:01.032Z,25.3
2023-08-13T07:46:01.122Z,25.5
2023-08-13T07:48:01.151Z,25.5
2023-08-13T07:49:01.184Z,25.6
2023-08-13T07:51:01.154Z,25.5
2023-08-13T07:53:01.147Z,25.6
2023-08-13T07:55:01.207Z,25.6
2023-08-13T07:57:01.176Z,25.5
2023-08-13T07:59:01.018Z,25.6
2023-08-13T08:00:01.124Z,25.4
2023-08-13T08:01:01.064Z,25.3
2023-08-13T08:04:01.025Z,25.4
2023-08-13T08:07:01.244Z,25.6
2023-08-13T08:09:01.165Z,25.6
2023-08-13T08:12:00.998Z,25.7
2023-08-13T08:13:01.174Z,25.8
2023-08-13T08:15:01.147Z,25.9
2023-08-13T08:16:01.262Z,26
2023-08-13T08:19:01.058Z,26.2
2023-08-13T08:20:01.246Z,26.3
2023-08-13T08:22:01.068Z,26.5
2023-08-13T08:24:01.017Z,26.6
2023-08-13T08:25:01.077Z,26.3
2023-08-13T08:26:01.098Z,26.2
2023-08-13T08:27:01.148Z,26.1
2023-08-13T08:31:01.132Z,25.9
2023-08-13T08:32:01.167Z,25.8
2023-08-13T08:34:01.017Z,25.9
2023-08-13T08:38:01.023Z,25.8
2023-08-13T08:39:01.040Z,25.6
2023-08-13T08:41:01.067Z,25.7
2023-08-13T08:42:01.207Z,25.6
2023-08-13T08:46:01.076Z,25.6
2023-08-13T08:47:01.106Z,25.7
2023-08-13T08:50:01.062Z,25.8
2023-08-13T08:52:01.033Z,25.9
2023-08-13T08:53:01.192Z,26.1
2023-08-13T08:57:01.212Z,26.4
2023-08-13T08:59:01.096Z,26.5
2023-08-13T09:00:01.200Z,26.6
2023-08-13T09:02:01.137Z,26.8
2023-08-13T09:03:03.319Z,26.7
2023-08-13T09:05:01.036Z,26.9
2023-08-13T09:06:11.930Z,27.2
2023-08-13T09:07:01.107Z,27.1
2023-08-13T09:09:01.088Z,27.1
2023-08-13T09:12:01.100Z,27.1
2023-08-13T09:13:01.088Z,26.8
2023-08-13T09:17:01.154Z,26.6
2023-08-13T09:21:01.175Z,27
2023-08-13T09:22:01.252Z,26.9
2023-08-13T09:24:01.038Z,27.1
2023-08-13T09:28:01.049Z,27.4
2023-08-13T09:29:01.048Z,27.5
2023-08-13T09:30:04.001Z,27.6
2023-08-13T09:32:01.031Z,27.8
2023-08-13T09:33:01.174Z,27.7
2023-08-13T09:35:01.121Z,27.7
2023-08-13T09:38:01.040Z,27.6
2023-08-13T09:39:01.105Z,27.7
2023-08-13T09:41:01.104Z,27.8
2023-08-13T09:43:01.076Z,27.9
2023-08-13T09:44:01.121Z,28.3
2023-08-13T09:47:01.216Z,28
2023-08-13T09:49:01.090Z,28
2023-08-13T09:52:01.050Z,28.2
2023-08-13T09:55:01.104Z,28.3
2023-08-13T09:58:01.043Z,28.7
2023-08-13T09:59:01.072Z,28.6
2023-08-13T10:01:01.338Z,28.5
2023-08-13T10:02:01.172Z,28.7
2023-08-13T10:04:01.074Z,28.9
2023-08-13T10:05:01.113Z,28.8
2023-08-13T10:07:01.129Z,28.9
2023-08-13T10:09:01.149Z,29
2023-08-13T10:12:01.147Z,29.2
2023-08-13T10:15:01.219Z,29.4
2023-08-13T10:17:01.711Z,29.5
2023-08-13T10:19:01.066Z,29.4
2023-08-13T10:23:01.105Z,29.3
2023-08-13T10:24:01.114Z,29.2
2023-08-13T10:25:01.218Z,29.1
2023-08-13T10:33:02.668Z,29.3
2023-08-13T10:36:01.018Z,29.3
2023-08-13T10:37:01.059Z,29.2
2023-08-13T10:39:01.080Z,29.4
2023-08-13T10:42:01.089Z,29.4
2023-08-13T10:44:01.063Z,29.5
2023-08-13T10:45:01.232Z,29.6
2023-08-13T10:50:01.017Z,30.1
2023-08-13T10:51:01.163Z,30
2023-08-13T10:53:01.308Z,29.9
2023-08-13T10:55:01.056Z,29.7
2023-08-13T10:59:01.184Z,29.8
2023-08-13T11:01:01.148Z,29.9
2023-08-13T11:03:02.126Z,30
2023-08-13T11:07:01.140Z,30.2
2023-08-13T11:11:01.169Z,30.2
2023-08-13T11:13:01.162Z,30
2023-08-13T11:21:01.077Z,29.7
2023-08-13T11:23:01.101Z,29.6
2023-08-13T11:25:01.066Z,29.7
2023-08-13T11:26:01.068Z,29.5
2023-08-13T11:27:02.990Z,29.3
2023-08-13T11:31:01.089Z,29.3
2023-08-13T11:36:00.982Z,29.5
2023-08-13T11:37:01.196Z,29.6
2023-08-13T11:39:01.042Z,29.7
2023-08-13T11:41:01.089Z,29.9
2023-08-13T11:43:01.088Z,30
2023-08-13T11:46:01.236Z,29.7
2023-08-13T11:48:01.088Z,29.8
2023-08-13T11:52:01.052Z,29.7
2023-08-13T11:54:01.051Z,29.7
2023-08-13T11:56:02.136Z,29.6
2023-08-13T11:58:01.146Z,29.5
2023-08-13T12:00:01.157Z,29.8
2023-08-13T12:01:01.131Z,29.6
2023-08-13T12:04:01.141Z,29.9
2023-08-13T12:07:01.140Z,30
2023-08-13T12:09:01.140Z,30.1
2023-08-13T12:12:01.187Z,30.3
2023-08-13T12:14:01.078Z,30.4
2023-08-13T12:16:01.215Z,30.5
2023-08-13T12:18:01.086Z,30.8
2023-08-13T12:20:03.174Z,30.9
2023-08-13T12:21:01.061Z,30.7
2023-08-13T12:23:01.066Z,30.7
2023-08-13T12:25:01.101Z,30.9
2023-08-13T12:27:01.085Z,31
2023-08-13T12:29:01.304Z,30.9
2023-08-13T12:31:01.128Z,30.8
2023-08-13T12:33:01.266Z,30.9
2023-08-13T12:35:01.169Z,30.9
2023-08-13T12:39:01.204Z,31.1
2023-08-13T12:43:01.152Z,30.8
2023-08-13T12:46:01.047Z,30.5
2023-08-13T12:47:01.129Z,30.3
2023-08-13T12:51:01.102Z,30.4
2023-08-13T12:52:01.214Z,30.3
2023-08-13T12:54:01.103Z,30.1
2023-08-13T12:56:01.049Z,30
2023-08-13T12:59:01.216Z,29.9
2023-08-13T13:02:01.155Z,30.1
2023-08-13T13:06:01.232Z,30.2
2023-08-13T13:08:01.058Z,30.4
2023-08-13T13:09:01.144Z,30.5
2023-08-13T13:11:01.118Z,30.5
2023-08-13T13:12:01.122Z,30.7
2023-08-13T13:13:01.106Z,30.6
2023-08-13T13:15:01.190Z,30.7
2023-08-13T13:18:01.186Z,30.9
2023-08-13T13:21:01.184Z,31
2023-08-13T13:23:01.350Z,30.9
2023-08-13T13:27:01.214Z,30.9
2023-08-13T13:29:01.320Z,31.2
2023-08-13T13:32:01.170Z,31.3
2023-08-13T13:33:01.244Z,31.4
2023-08-13T13:35:01.130Z,31.3
2023-08-13T13:39:01.130Z,31.3
2023-08-13T13:41:01.242Z,31.2
2023-08-13T13:43:01.212Z,31.3
2023-08-13T13:45:01.140Z,31
2023-08-13T13:47:03.571Z,30.9
2023-08-13T13:49:01.275Z,31.1
2023-08-13T13:51:01.169Z,31
2023-08-13T13:54:01.152Z,31
2023-08-13T13:56:01.241Z,30.9
2023-08-13T14:00:01.352Z,30.7
2023-08-13T14:02:01.063Z,30.6
2023-08-13T14:05:01.174Z,30.5
2023-08-13T14:08:01.064Z,30.3
2023-08-13T14:09:01.177Z,30.2
2023-08-13T14:10:01.201Z,30.2
2023-08-13T14:12:01.196Z,30.1
2023-08-13T14:15:01.374Z,29.9
2023-08-13T14:18:02.433Z,29.8
2023-08-13T14:20:01.162Z,29.9
2023-08-13T14:22:01.101Z,29.7
2023-08-13T14:23:01.206Z,29.6
2023-08-13T14:24:01.197Z,29.7
2023-08-13T14:25:01.180Z,29.6
2023-08-13T14:28:01.052Z,29.7
2023-08-13T14:29:01.087Z,29.8
2023-08-13T14:31:01.156Z,29.6
2023-08-13T14:32:01.165Z,29.5
2023-08-13T14:33:01.278Z,29.7
2023-08-13T14:35:01.319Z,29.6
2023-08-13T14:37:01.249Z,29.5
2023-08-13T14:40:01.030Z,29.5
2023-08-13T14:42:01.128Z,29.5
2023-08-13T14:43:01.289Z,29.6
2023-08-13T14:45:01.246Z,29.9
2023-08-13T14:47:01.109Z,29.9
2023-08-13T14:48:01.255Z,30
2023-08-13T14:49:01.163Z,30.1
2023-08-13T14:52:01.015Z,30.1
2023-08-13T14:53:01.312Z,30.3
2023-08-13T14:55:01.167Z,30.2
2023-08-13T14:56:01.170Z,30
2023-08-13T15:00:01.193Z,30
2023-08-13T15:02:01.106Z,30
2023-08-13T15:06:01.169Z,30.2
2023-08-13T15:07:01.112Z,30.3
2023-08-13T15:13:01.180Z,30.1
2023-08-13T15:15:01.114Z,30.3
2023-08-13T15:17:01.102Z,30.2
2023-08-13T15:19:01.200Z,30.3
2023-08-13T15:21:01.162Z,30.1
2023-08-13T15:23:01.116Z,29.9
2023-08-13T15:25:01.198Z,29.8
2023-08-13T15:27:01.113Z,29.7
2023-08-13T15:29:01.160Z,29.6
2023-08-13T15:31:01.165Z,29.5
2023-08-13T15:32:01.166Z,29.4
2023-08-13T15:35:01.254Z,29.2
2023-08-13T15:37:01.115Z,29.1
2023-08-13T15:41:01.133Z,29
2023-08-13T15:43:01.149Z,29
2023-08-13T15:45:01.210Z,28.8
2023-08-13T15:48:01.207Z,28.7
2023-08-13T15:49:01.206Z,28.8
2023-08-13T15:51:01.128Z,28.7
2023-08-13T15:55:01.241Z,28.4
2023-08-13T15:58:01.128Z,28.3
2023-08-13T16:01:01.235Z,28.1
2023-08-13T16:04:01.171Z,28.1
2023-08-13T16:06:01.126Z,28
2023-08-13T16:07:01.116Z,28.1
2023-08-13T16:09:01.193Z,28
2023-08-13T16:11:01.181Z,28
2023-08-13T16:17:01.296Z,27.9
2023-08-13T16:20:01.117Z,27.9
2023-08-13T16:23:01.181Z,27.8
2023-08-13T16:28:01.043Z,27.7
2023-08-13T16:29:01.299Z,27.8
2023-08-13T16:30:01.628Z,27.7
2023-08-13T16:33:01.165Z,27.6
2023-08-13T16:34:01.170Z,27.7
2023-08-13T16:38:01.205Z,27.5
2023-08-13T16:40:01.122Z,27.4
2023-08-13T16:42:01.058Z,27.3
2023-08-13T16:47:01.210Z,27.4
2023-08-13T16:48:01.279Z,27.1
2023-08-13T16:54:01.316Z,26.9
2023-08-13T16:56:01.103Z,26.9
2023-08-13T16:58:01.256Z,27
2023-08-13T16:59:01.249Z,27.1
2023-08-13T17:01:01.181Z,26.9
2023-08-13T17:03:01.212Z,26.7
2023-08-13T17:04:01.206Z,26.8
2023-08-13T17:08:01.112Z,26.7
2023-08-13T17:09:01.449Z,26.8
2023-08-13T17:11:01.151Z,26.7
2023-08-13T17:13:01.260Z,26.6
2023-08-13T17:17:01.173Z,26.5
2023-08-13T17:21:01.142Z,26.3
2023-08-13T17:25:01.296Z,26.2
2023-08-13T17:33:01.265Z,26
2023-08-13T17:35:01.205Z,25.8
2023-08-13T17:37:01.237Z,25.8
2023-08-13T17:40:01.311Z,25.8
2023-08-13T17:41:01.222Z,25.9
2023-08-13T17:44:01.069Z,25.6
2023-08-13T17:45:01.204Z,25.7
2023-08-13T17:47:01.099Z,25.7
2023-08-13T17:50:01.015Z,25.5
2023-08-13T17:52:01.099Z,25.6
2023-08-13T17:54:01.060Z,25.4
2023-08-13T17:56:01.177Z,25.2
2023-08-13T18:00:01.071Z,25.2
2023-08-13T18:03:01.181Z,25.1
2023-08-13T18:05:01.061Z,25
2023-08-13T18:06:01.195Z,25.1
2023-08-13T18:10:01.133Z,25
2023-08-13T18:11:01.125Z,24.9
2023-08-13T18:13:01.343Z,24.9
2023-08-13T18:15:01.336Z,24.6
2023-08-13T18:19:01.088Z,24.8
2023-08-13T18:20:01.120Z,24.5
2023-08-13T18:21:01.266Z,24.4
2023-08-13T18:23:01.051Z,24.4
2023-08-13T18:25:01.068Z,24.3
2023-08-13T18:26:01.201Z,24.4
2023-08-13T18:28:01.181Z,24.1
2023-08-13T18:31:01.208Z,24
2023-08-13T18:34:01.164Z,23.9
2023-08-13T18:36:01.132Z,23.8
2023-08-13T18:37:01.210Z,23.7
2023-08-13T18:40:01.013Z,23.6
2023-08-13T18:42:01.135Z,23.5
2023-08-13T18:43:01.226Z,23.6
2023-08-13T18:47:01.181Z,23.3
2023-08-13T18:48:01.389Z,23.2
2023-08-13T18:50:01.168Z,23.4
2023-08-13T18:51:01.195Z,23.3
2023-08-13T18:52:01.183Z,23.1
2023-08-13T18:53:01.355Z,23
2023-08-13T18:55:01.442Z,23.2
2023-08-13T18:57:01.318Z,23.1
2023-08-13T19:02:01.128Z,23.2
2023-08-13T19:08:01.072Z,23.2
2023-08-13T19:09:01.263Z,23
2023-08-13T19:11:01.256Z,23.1
2023-08-13T19:14:02.054Z,23.1
2023-08-13T19:16:01.191Z,23
2023-08-13T19:18:01.076Z,22.9
2023-08-13T19:21:01.244Z,22.8
2023-08-13T19:23:01.095Z,22.8
2023-08-13T19:26:01.455Z,22.9
2023-08-13T19:29:01.235Z,22.8
2023-08-13T19:32:01.118Z,22.6
2023-08-13T19:34:01.109Z,22.7
2023-08-13T19:35:01.095Z,22.5
2023-08-13T19:38:01.082Z,22.6
2023-08-13T19:40:00.997Z,22.5
2023-08-13T19:41:01.195Z,22.4
2023-08-13T19:43:01.105Z,22.2
2023-08-13T19:46:01.166Z,22.3
2023-08-13T19:47:01.146Z,22.2
2023-08-13T19:50:01.052Z,22
2023-08-13T19:51:01.119Z,22.2
2023-08-13T19:54:01.039Z,22.1
2023-08-13T19:55:01.556Z,22
2023-08-13T19:58:01.191Z,22.1
2023-08-13T20:00:01.306Z,21.9
2023-08-13T20:03:01.296Z,21.8
2023-08-13T20:08:01.048Z,21.7
2023-08-13T20:10:01.173Z,21.7
2023-08-13T20:13:01.072Z,21.7
2023-08-13T20:15:01.075Z,21.6
2023-08-13T20:17:00.998Z,21.7
2023-08-13T20:18:01.207Z,21.8
2023-08-13T20:19:01.130Z,21.6
2023-08-13T20:22:01.030Z,21.6
2023-08-13T20:25:00.983Z,21.5
2023-08-13T20:27:01.047Z,21.6
2023-08-13T20:32:01.144Z,21.4
2023-08-13T20:34:01.266Z,21.3
2023-08-13T20:36:01.087Z,21.4
2023-08-13T20:38:01.132Z,21.3
2023-08-13T20:40:01.040Z,21.3
2023-08-13T20:46:01.087Z,21.1
2023-08-13T20:47:01.046Z,21.3
2023-08-13T20:49:01.055Z,21.2
2023-08-13T20:51:01.035Z,21
2023-08-13T20:55:01.006Z,21.3
2023-08-13T20:57:01.168Z,21.3
2023-08-13T20:59:00.987Z,21.3
2023-08-13T21:00:01.116Z,21
2023-08-13T21:02:01.010Z,21
2023-08-13T21:03:01.165Z,21.1
2023-08-13T21:12:01.136Z,20.9
2023-08-13T21:18:01.186Z,20.8
2023-08-13T21:22:01.068Z,20.7
2023-08-13T21:25:01.149Z,20.9
2023-08-13T21:27:01.110Z,20.8
2023-08-13T21:31:01.081Z,20.7
2023-08-13T21:36:01.093Z,20.9
2023-08-13T21:37:01.085Z,20.7
2023-08-13T21:39:01.051Z,20.9
2023-08-13T21:40:01.060Z,20.7
2023-08-13T21:42:01.245Z,20.6
2023-08-13T21:47:01.058Z,20.9
2023-08-13T21:48:01.074Z,20.8
2023-08-13T21:50:01.122Z,20.8
2023-08-13T21:54:01.370Z,20.9
2023-08-13T21:59:01.016Z,20.8
2023-08-13T22:00:01.362Z,20.9
2023-08-13T22:03:01.184Z,20.9
2023-08-13T22:06:01.152Z,20.8
2023-08-13T22:12:01.138Z,20.7
2023-08-13T22:15:01.177Z,20.8
2023-08-13T22:16:01.195Z,20.7
2023-08-13T22:18:01.128Z,20.9
2023-08-13T22:20:01.049Z,20.8
2023-08-13T22:23:01.064Z,20.7
2023-08-13T22:26:12.767Z,20.8
2023-08-13T22:28:01.083Z,20.7
2023-08-13T22:31:01.100Z,20.8
2023-08-13T22:33:01.098Z,20.7
2023-08-13T22:35:01.071Z,20.6
2023-08-13T22:36:01.188Z,20.7
2023-08-13T22:38:01.066Z,20.7
2023-08-13T22:40:01.056Z,20.9
2023-08-13T22:43:00.963Z,20.8
2023-08-13T22:44:01.036Z,20.7
2023-08-13T22:45:01.098Z,20.8
2023-08-13T22:46:01.081Z,20.7
2023-08-13T22:49:01.141Z,20.6
2023-08-13T22:53:01.024Z,20.6
2023-08-13T22:55:01.059Z,20.7
2023-08-13T22:56:01.091Z,20.6
2023-08-13T23:02:01.010Z,20.4
2023-08-13T23:05:01.034Z,20.5
2023-08-13T23:06:01.036Z,20.4
2023-08-13T23:08:01.100Z,20.3
2023-08-13T23:09:01.208Z,20.4
2023-08-13T23:11:01.101Z,20.3
2023-08-13T23:12:01.111Z,20.2
2023-08-13T23:15:01.044Z,20.2
2023-08-13T23:16:01.120Z,20.1
2023-08-13T23:18:01.098Z,20.2
2023-08-13T23:21:01.113Z,20
2023-08-13T23:23:01.173Z,20
2023-08-13T23:25:01.043Z,19.9
2023-08-13T23:31:01.045Z,19.8
2023-08-13T23:32:01.046Z,20
2023-08-13T23:34:01.059Z,19.8
2023-08-13T23:36:01.138Z,20.1
2023-08-13T23:38:01.179Z,20.1
2023-08-13T23:39:01.190Z,19.9
2023-08-13T23:41:01.053Z,19.9
2023-08-13T23:43:01.090Z,20
2023-08-13T23:45:01.142Z,19.7
2023-08-13T23:49:01.165Z,20
2023-08-13T23:51:01.191Z,20
2023-08-13T23:53:01.021Z,19.7
2023-08-13T23:54:01.189Z,19.9
2023-08-13T23:57:01.200Z,19.7
2023-08-13T23:59:01.091Z,19.8
